Time;durP1;ratioP1;P1;durP2;ratioP2;P2;SDS_P1;SDS_P2;PMS_P1;PMS_P2;Temp;Humidity;BMP_temperature;BMP_pressure;BME280_temperature;BME280_humidity;BME280_pressure;Samples;Min_cycle;Max_cycle;Signal;HPM_P1;HPM_P2
2023/12/01 00:02:18;;;;;;;17.42;12.23;;;;;;;;;;12820451;22;20023;-67
2023/12/01 00:07:14;;;;;;;18.10;12.15;;;;;;;;;;12821663;22;20027;-66
2023/12/01 00:12:10;;;;;;;21.50;11.60;;;;;;;;;;12822692;22;20034;-67
2023/12/01 00:17:07;;;;;;;15.73;10.70;;;;;;;;;;12798216;22;20077;-67
2023/12/01 00:22:03;;;;;;;14.57;11.50;;;;;;;;;;12824872;22;20527;-67
2023/12/01 00:27:00;;;;;;;19.67;11.88;;;;;;;;;;12825086;22;20031;-66
2023/12/01 00:31:56;;;;;;;18.77;11.70;;;;;;;;;;12824926;22;20070;-66
2023/12/01 00:36:53;;;;;;;13.88;10.85;;;;;;;;;;12819563;22;20023;-66
2023/12/01 00:41:49;;;;;;;16.00;11.98;;;;;;;;;;12818827;22;20361;-66
2023/12/01 00:46:46;;;;;;;18.73;12.65;;;;;;;;;;12824818;22;20031;-66
2023/12/01 00:51:43;;;;;;;17.95;12.35;;;;;;;;;;12823563;22;20027;-66
2023/12/01 00:56:40;;;;;;;16.58;11.73;;;;;;;;;;12825125;22;20023;-66
2023/12/01 01:01:40;;;;;;;17.67;13.05;;;;;;;;;;12823635;22;20065;-66
2023/12/01 01:06:36;;;;;;;17.60;12.70;;;;;;;;;;12825045;22;20129;-67
2023/12/01 01:11:32;;;;;;;18.83;12.73;;;;;;;;;;12848212;22;20090;-67
2023/12/01 01:16:29;;;;;;;17.65;12.80;;;;;;;;;;12824448;22;20077;-66
2023/12/01 01:21:25;;;;;;;18.98;12.68;;;;;;;;;;12823722;22;20027;-66
2023/12/01 01:26:21;;;;;;;15.85;12.77;;;;;;;;;;12823596;22;20372;-67
2023/12/01 01:31:18;;;;;;;17.83;12.88;;;;;;;;;;12823877;22;20019;-65
2023/12/01 01:36:14;;;;;;;20.50;13.80;;;;;;;;;;12824011;22;20023;-65
2023/12/01 01:41:11;;;;;;;18.65;13.35;;;;;;;;;;12813057;22;20670;-66
2023/12/01 01:46:09;;;;;;;19.38;13.07;;;;;;;;;;12796790;22;20368;-66
2023/12/01 01:51:07;;;;;;;18.40;13.02;;;;;;;;;;12822114;22;20027;-67
2023/12/01 01:56:03;;;;;;;16.00;12.48;;;;;;;;;;12823619;22;20027;-67
2023/12/01 02:01:00;;;;;;;17.45;12.75;;;;;;;;;;12822587;22;20360;-67
2023/12/01 02:05:57;;;;;;;17.88;13.30;;;;;;;;;;12820434;22;20031;-65
2023/12/01 02:10:54;;;;;;;19.00;13.50;;;;;;;;;;12821991;22;20078;-66
2023/12/01 02:15:50;;;;;;;19.75;12.70;;;;;;;;;;12822066;22;20023;-66
2023/12/01 02:20:47;;;;;;;19.55;12.80;;;;;;;;;;12822349;22;20030;-67
2023/12/01 02:25:44;;;;;;;21.77;14.25;;;;;;;;;;12823146;22;20031;-68
2023/12/01 02:30:41;;;;;;;18.42;12.70;;;;;;;;;;12821440;22;20491;-68
2023/12/01 02:35:37;;;;;;;21.13;13.43;;;;;;;;;;12818749;22;20019;-68
2023/12/01 02:40:34;;;;;;;15.45;11.45;;;;;;;;;;12822648;22;20538;-67
2023/12/01 02:45:30;;;;;;;22.73;13.57;;;;;;;;;;12809869;22;20026;-67
2023/12/01 02:50:26;;;;;;;19.58;13.77;;;;;;;;;;12846115;22;20022;-67
2023/12/01 02:55:23;;;;;;;20.73;13.65;;;;;;;;;;12822302;22;20026;-66
2023/12/01 03:00:19;;;;;;;19.65;14.02;;;;;;;;;;12822201;22;20022;-67
2023/12/01 03:05:16;;;;;;;19.63;14.27;;;;;;;;;;12821384;22;20019;-67
2023/12/01 03:10:12;;;;;;;18.73;13.40;;;;;;;;;;12819042;22;20041;-67
2023/12/01 03:15:10;;;;;;;17.55;13.10;;;;;;;;;;12821953;22;20504;-67
2023/12/01 03:20:10;;;;;;;22.65;14.38;;;;;;;;;;12821740;22;20077;-67
2023/12/01 03:25:09;;;;;;;21.17;14.43;;;;;;;;;;12846790;22;20019;-67
2023/12/01 03:30:13;;;;;;;21.77;14.90;;;;;;;;;;12819837;22;20026;-67
2023/12/01 03:35:12;;;;;;;19.13;14.35;;;;;;;;;;12821994;22;20099;-67
2023/12/01 03:40:08;;;;;;;19.25;14.63;;;;;;;;;;12821895;22;20026;-67
2023/12/01 03:45:06;;;;;;;20.77;13.77;;;;;;;;;;12821606;22;20093;-66
2023/12/01 03:50:05;;;;;;;21.80;15.23;;;;;;;;;;12813347;22;20239;-67
2023/12/01 03:55:02;;;;;;;25.92;15.13;;;;;;;;;;12825938;22;20015;-67
2023/12/01 03:59:58;;;;;;;21.50;14.23;;;;;;;;;;12825221;22;20085;-67
2023/12/01 04:04:56;;;;;;;25.63;15.63;;;;;;;;;;12825064;22;20428;-67
2023/12/01 04:09:52;;;;;;;21.38;15.00;;;;;;;;;;12825031;22;20536;-67
2023/12/01 04:14:49;;;;;;;23.58;15.25;;;;;;;;;;12825225;22;20034;-66
2023/12/01 04:19:46;;;;;;;27.85;16.35;;;;;;;;;;12824452;22;20072;-66
2023/12/01 04:24:45;;;;;;;25.42;15.82;;;;;;;;;;12825370;22;20551;-66
2023/12/01 04:29:43;;;;;;;22.90;16.65;;;;;;;;;;12822826;22;20023;-66
2023/12/01 04:34:39;;;;;;;24.52;15.50;;;;;;;;;;12826178;22;20101;-65
2023/12/01 04:39:36;;;;;;;24.45;14.60;;;;;;;;;;12823747;22;20045;-66
2023/12/01 04:44:32;;;;;;;24.50;15.02;;;;;;;;;;12825555;22;20015;-67
2023/12/01 04:49:28;;;;;;;26.45;17.67;;;;;;;;;;12819543;22;20023;-67
2023/12/01 04:54:25;;;;;;;24.60;15.43;;;;;;;;;;12819051;22;20035;-67
2023/12/01 04:59:21;;;;;;;22.23;15.13;;;;;;;;;;12824802;22;20019;-67
2023/12/01 05:04:17;;;;;;;26.40;17.33;;;;;;;;;;12825614;22;20023;-67
2023/12/01 05:09:17;;;;;;;23.52;15.90;;;;;;;;;;12826217;22;20027;-66
2023/12/01 05:14:13;;;;;;;22.17;14.50;;;;;;;;;;12826082;22;20587;-67
2023/12/01 05:19:10;;;;;;;21.15;13.73;;;;;;;;;;12823795;22;20407;-67
2023/12/01 05:24:07;;;;;;;21.50;15.35;;;;;;;;;;12824235;22;20023;-67
2023/12/01 05:29:04;;;;;;;22.50;15.70;;;;;;;;;;12823307;22;20023;-67
2023/12/01 05:34:00;;;;;;;23.40;16.33;;;;;;;;;;12823774;22;20018;-68
2023/12/01 05:39:12;;;;;;;32.70;17.30;;;;;;;;;;12825689;22;20075;-69
2023/12/01 05:44:09;;;;;;;24.80;14.88;;;;;;;;;;12820166;22;20101;-69
2023/12/01 05:49:05;;;;;;;24.65;17.17;;;;;;;;;;12823036;22;20027;-69
2023/12/01 05:54:02;;;;;;;24.42;16.65;;;;;;;;;;12813282;22;20054;-69
2023/12/01 05:58:58;;;;;;;27.58;16.67;;;;;;;;;;12818963;22;20030;-70
2023/12/01 06:03:54;;;;;;;29.95;17.58;;;;;;;;;;12818528;22;20193;-70
2023/12/01 06:08:51;;;;;;;27.45;16.35;;;;;;;;;;12810088;22;20034;-70
2023/12/01 06:13:47;;;;;;;32.78;19.35;;;;;;;;;;12820832;22;20400;-71
2023/12/01 06:18:44;;;;;;;30.30;17.80;;;;;;;;;;12819221;22;20531;-70
2023/12/01 06:23:41;;;;;;;34.42;19.38;;;;;;;;;;12845029;22;20109;-70
2023/12/01 06:28:37;;;;;;;28.67;18.45;;;;;;;;;;12820684;22;20054;-70
2023/12/01 06:33:33;;;;;;;28.55;17.48;;;;;;;;;;12820652;22;20027;-70
2023/12/01 06:38:30;;;;;;;23.75;16.52;;;;;;;;;;12846171;22;20023;-70
2023/12/01 06:43:26;;;;;;;28.63;18.15;;;;;;;;;;12818536;22;20027;-70
2023/12/01 06:48:23;;;;;;;30.58;17.00;;;;;;;;;;12822070;22;20023;-70
2023/12/01 06:53:19;;;;;;;24.30;16.67;;;;;;;;;;12819693;22;20069;-70
2023/12/01 06:58:16;;;;;;;29.08;17.77;;;;;;;;;;12819076;22;20068;-69
2023/12/01 07:03:13;;;;;;;28.23;17.58;;;;;;;;;;12820954;22;20027;-68
2023/12/01 07:08:11;;;;;;;27.85;17.67;;;;;;;;;;12813376;22;20034;-70
2023/12/01 07:13:08;;;;;;;30.60;18.13;;;;;;;;;;12820596;22;20023;-71
2023/12/01 07:18:05;;;;;;;30.50;20.13;;;;;;;;;;12815657;22;20026;-71
2023/12/01 07:23:02;;;;;;;34.47;18.80;;;;;;;;;;12823419;22;20023;-70
2023/12/01 07:28:04;;;;;;;;;;;;;;;;;;12825866;22;20419;-70
2023/12/01 07:33:04;;;;;;;27.65;18.52;;;;;;;;;;12823877;22;19914;-72
2023/12/01 07:38:04;;;;;;;31.52;18.42;;;;;;;;;;12824125;22;20412;-71
2023/12/01 07:43:00;;;;;;;28.73;17.38;;;;;;;;;;12848162;22;20364;-71
2023/12/01 07:47:57;;;;;;;27.70;17.17;;;;;;;;;;12825225;22;20023;-72
2023/12/01 07:52:53;;;;;;;28.85;18.58;;;;;;;;;;12823358;22;20038;-71
2023/12/01 07:57:51;;;;;;;34.78;18.30;;;;;;;;;;12820714;22;20023;-72
2023/12/01 08:02:51;;;;;;;27.90;17.23;;;;;;;;;;12822740;22;20024;-72
2023/12/01 08:07:52;;;;;;;31.45;18.08;;;;;;;;;;12824838;22;20033;-71
2023/12/01 08:12:56;;;;;;;27.27;17.83;;;;;;;;;;12817121;22;20027;-72
2023/12/01 08:17:53;;;;;;;28.70;17.70;;;;;;;;;;12824448;22;20037;-72
2023/12/01 08:22:49;;;;;;;30.10;17.40;;;;;;;;;;12823415;22;20030;-72
2023/12/01 08:27:46;;;;;;;24.58;17.85;;;;;;;;;;12847808;22;20295;-73
2023/12/01 08:32:42;;;;;;;28.50;17.35;;;;;;;;;;12824266;22;20069;-73
2023/12/01 08:37:40;;;;;;;28.33;17.83;;;;;;;;;;12824873;22;20102;-73
2023/12/01 08:42:36;;;;;;;30.95;18.75;;;;;;;;;;12817664;22;20474;-72
2023/12/01 08:47:33;;;;;;;30.30;19.40;;;;;;;;;;12848287;22;20027;-72
2023/12/01 08:52:29;;;;;;;30.90;17.75;;;;;;;;;;12823038;22;20047;-72
2023/12/01 08:57:25;;;;;;;30.23;19.38;;;;;;;;;;12823643;22;20031;-73
2023/12/01 09:02:22;;;;;;;35.38;18.25;;;;;;;;;;12846765;22;20019;-73
2023/12/01 09:07:18;;;;;;;32.20;19.27;;;;;;;;;;12848219;22;20683;-73
2023/12/01 09:12:15;;;;;;;30.02;17.38;;;;;;;;;;12793981;22;20685;-72
2023/12/01 09:17:13;;;;;;;28.02;18.25;;;;;;;;;;12817405;22;20027;-72
2023/12/01 09:22:10;;;;;;;29.48;18.45;;;;;;;;;;12848351;22;20023;-73
2023/12/01 09:27:06;;;;;;;29.55;18.25;;;;;;;;;;12824070;22;20061;-72
2023/12/01 09:32:03;;;;;;;26.55;18.42;;;;;;;;;;12823515;22;20027;-72
2023/12/01 09:36:59;;;;;;;26.55;17.52;;;;;;;;;;12822187;22;20101;-72
2023/12/01 09:41:55;;;;;;;26.70;16.95;;;;;;;;;;12815004;22;20027;-72
2023/12/01 09:46:52;;;;;;;30.67;17.67;;;;;;;;;;12821750;22;21013;-72
2023/12/01 09:51:49;;;;;;;29.90;18.15;;;;;;;;;;12820681;22;20027;-73
2023/12/01 09:56:45;;;;;;;31.50;16.38;;;;;;;;;;12822641;22;20035;-73
2023/12/01 10:01:44;;;;;;;26.10;17.10;;;;;;;;;;12819123;22;20019;-72
2023/12/01 10:06:41;;;;;;;27.08;17.73;;;;;;;;;;12846387;22;20027;-73
2023/12/01 10:11:37;;;;;;;29.42;16.67;;;;;;;;;;12821223;22;20027;-73
2023/12/01 10:16:38;;;;;;;27.23;17.75;;;;;;;;;;12816632;22;20500;-72
2023/12/01 10:21:37;;;;;;;32.72;17.23;;;;;;;;;;12821853;22;20030;-72
2023/12/01 10:26:34;;;;;;;32.97;17.73;;;;;;;;;;12820441;22;20412;-70
2023/12/01 10:31:31;;;;;;;27.83;16.33;;;;;;;;;;12820673;22;20031;-73
2023/12/01 10:36:27;;;;;;;31.58;16.75;;;;;;;;;;12822409;22;20031;-73
2023/12/01 10:41:24;;;;;;;27.13;15.88;;;;;;;;;;12821215;22;20047;-73
2023/12/01 10:46:21;;;;;;;23.05;16.05;;;;;;;;;;12845243;22;20050;-72
2023/12/01 10:51:17;;;;;;;23.80;16.23;;;;;;;;;;12820999;22;20031;-72
2023/12/01 10:56:16;;;;;;;26.48;16.35;;;;;;;;;;12846720;22;20053;-71
2023/12/01 11:01:12;;;;;;;27.60;16.17;;;;;;;;;;12811757;22;20027;-73
2023/12/01 11:06:14;;;;;;;25.40;15.23;;;;;;;;;;12820849;22;20146;-73
2023/12/01 11:11:24;;;;;;;24.83;15.67;;;;;;;;;;12845268;22;20030;-73
2023/12/01 11:16:21;;;;;;;25.17;14.93;;;;;;;;;;12794872;22;20028;-73
2023/12/01 11:21:18;;;;;;;22.02;14.77;;;;;;;;;;12813330;22;20026;-73
2023/12/01 11:26:16;;;;;;;24.02;15.00;;;;;;;;;;12845323;22;20376;-72
2023/12/01 11:36:18;;;;;;;24.17;15.07;;;;;;;;;;12817105;22;20477;-71
2023/12/01 11:41:22;;;;;;;22.77;14.20;;;;;;;;;;12819163;22;20058;-72
2023/12/01 11:46:21;;;;;;;19.92;13.95;;;;;;;;;;12819480;22;20118;-73
2023/12/01 11:51:21;;;;;;;19.45;13.18;;;;;;;;;;12819875;22;20027;-73
2023/12/01 11:56:17;;;;;;;17.88;12.68;;;;;;;;;;12820854;22;20027;-72
2023/12/01 12:01:13;;;;;;;15.65;11.48;;;;;;;;;;12843530;22;20368;-74
2023/12/01 12:06:11;;;;;;;18.40;11.85;;;;;;;;;;12812302;22;20023;-72
2023/12/01 12:11:11;;;;;;;13.95;11.35;;;;;;;;;;12820018;22;20522;-73
2023/12/01 12:16:08;;;;;;;17.08;11.30;;;;;;;;;;12819981;22;20346;-72
2023/12/01 12:21:05;;;;;;;14.23;11.50;;;;;;;;;;12817263;22;20023;-73
2023/12/01 12:26:17;;;;;;;13.25;10.98;;;;;;;;;;12845293;22;20027;-73
2023/12/01 12:31:14;;;;;;;15.10;10.67;;;;;;;;;;12822814;22;20333;-73
2023/12/01 12:36:13;;;;;;;16.90;12.07;;;;;;;;;;12823523;22;20041;-73
2023/12/01 12:41:26;;;;;;;19.83;11.60;;;;;;;;;;12821856;22;20019;-72
2023/12/01 12:46:23;;;;;;;13.60;11.00;;;;;;;;;;12820962;22;20480;-73
2023/12/01 12:51:21;;;;;;;14.85;10.63;;;;;;;;;;12823177;22;20346;-74
2023/12/01 12:56:18;;;;;;;15.18;9.43;;;;;;;;;;12762759;22;20086;-74
2023/12/01 13:01:17;;;;;;;14.93;10.95;;;;;;;;;;12761236;22;20030;-73
2023/12/01 13:06:13;;;;;;;15.30;11.20;;;;;;;;;;12814598;22;20054;-73
2023/12/01 13:11:10;;;;;;;17.67;10.68;;;;;;;;;;12816718;22;20023;-72
2023/12/01 13:16:07;;;;;;;15.43;12.15;;;;;;;;;;12818984;22;20037;-73
2023/12/01 13:21:04;;;;;;;16.52;11.75;;;;;;;;;;12820346;22;20027;-73
2023/12/01 13:26:01;;;;;;;13.70;11.13;;;;;;;;;;12821891;22;20051;-72
2023/12/01 13:30:57;;;;;;;14.27;10.65;;;;;;;;;;12817449;22;20031;-73
2023/12/01 13:35:54;;;;;;;14.00;11.52;;;;;;;;;;12823873;22;20061;-73
2023/12/01 13:40:51;;;;;;;17.45;11.40;;;;;;;;;;12823622;22;20019;-73
2023/12/01 13:45:52;;;;;;;17.65;12.65;;;;;;;;;;12823748;22;20554;-73
2023/12/01 13:50:48;;;;;;;21.85;12.20;;;;;;;;;;12823404;22;20033;-73
2023/12/01 13:55:45;;;;;;;17.17;12.10;;;;;;;;;;12821551;22;20030;-72
2023/12/01 14:00:53;;;;;;;14.00;10.52;;;;;;;;;;12819743;22;20369;-73
2023/12/01 14:05:49;;;;;;;14.98;10.98;;;;;;;;;;12822164;22;20453;-72
2023/12/01 14:10:46;;;;;;;16.85;11.75;;;;;;;;;;12819272;22;20033;-72
2023/12/01 14:15:43;;;;;;;12.15;10.18;;;;;;;;;;12823474;22;20026;-73
2023/12/01 14:20:41;;;;;;;17.98;10.80;;;;;;;;;;12821392;22;20077;-73
2023/12/01 14:25:37;;;;;;;15.55;11.35;;;;;;;;;;12820989;22;20468;-72
2023/12/01 14:30:33;;;;;;;15.43;10.25;;;;;;;;;;12822409;22;20511;-72
2023/12/01 14:35:30;;;;;;;13.57;10.32;;;;;;;;;;12822362;22;20030;-73
2023/12/01 14:40:26;;;;;;;14.80;11.50;;;;;;;;;;12822589;22;20081;-73
2023/12/01 14:45:24;;;;;;;17.45;11.63;;;;;;;;;;12822851;22;20027;-73
2023/12/01 14:50:21;;;;;;;14.25;10.60;;;;;;;;;;12815671;22;20050;-71
2023/12/01 14:55:17;;;;;;;24.58;10.48;;;;;;;;;;12822102;22;20027;-72
2023/12/01 15:00:14;;;;;;;16.45;11.18;;;;;;;;;;12821459;22;20015;-73
2023/12/01 15:05:11;;;;;;;13.85;11.00;;;;;;;;;;12821760;22;20042;-73
2023/12/01 15:10:08;;;;;;;12.15;10.63;;;;;;;;;;12822091;22;20601;-72
2023/12/01 15:15:04;;;;;;;20.20;12.70;;;;;;;;;;12822703;22;20035;-72
2023/12/01 15:20:01;;;;;;;17.70;12.13;;;;;;;;;;12822049;22;20023;-73
2023/12/01 15:24:58;;;;;;;14.52;11.13;;;;;;;;;;12822416;22;20530;-73
2023/12/01 15:29:54;;;;;;;14.77;12.13;;;;;;;;;;12820179;22;20023;-72
2023/12/01 15:34:50;;;;;;;23.63;13.07;;;;;;;;;;12820485;22;20042;-72
2023/12/01 15:39:47;;;;;;;16.85;11.75;;;;;;;;;;12819825;22;21094;-72
2023/12/01 15:44:43;;;;;;;19.10;13.32;;;;;;;;;;12825343;22;20106;-72
2023/12/01 15:49:40;;;;;;;19.27;13.80;;;;;;;;;;12825519;22;20399;-73
2023/12/01 15:54:36;;;;;;;18.83;14.10;;;;;;;;;;12818434;22;20045;-72
2023/12/01 15:59:32;;;;;;;19.85;14.80;;;;;;;;;;12825608;22;20023;-72
2023/12/01 16:04:28;;;;;;;18.80;14.07;;;;;;;;;;12825211;22;20019;-72
2023/12/01 16:09:25;;;;;;;16.75;13.77;;;;;;;;;;12825012;22;20032;-72
2023/12/01 16:14:22;;;;;;;20.40;14.10;;;;;;;;;;12825508;22;20023;-73
2023/12/01 16:19:18;;;;;;;18.40;13.85;;;;;;;;;;12825847;22;20023;-74
2023/12/01 16:24:14;;;;;;;16.95;13.80;;;;;;;;;;12824985;22;20414;-73
2023/12/01 16:29:17;;;;;;;18.20;13.80;;;;;;;;;;12824588;22;20019;-71
2023/12/01 16:34:14;;;;;;;20.83;14.73;;;;;;;;;;12824693;22;20105;-72
2023/12/01 16:39:10;;;;;;;17.67;14.10;;;;;;;;;;12824806;22;20027;-72
2023/12/01 16:44:06;;;;;;;18.50;14.93;;;;;;;;;;12823468;22;20030;-72
2023/12/01 16:49:03;;;;;;;18.83;13.82;;;;;;;;;;12824213;22;20457;-72
2023/12/01 16:53:59;;;;;;;20.25;14.43;;;;;;;;;;12824099;22;20019;-72
2023/12/01 16:58:56;;;;;;;18.83;15.13;;;;;;;;;;12817492;22;20094;-71
2023/12/01 17:03:53;;;;;;;19.38;14.07;;;;;;;;;;12824578;22;20085;-72
2023/12/01 17:08:49;;;;;;;21.58;14.70;;;;;;;;;;12824433;22;20024;-70
2023/12/01 17:13:48;;;;;;;19.15;13.30;;;;;;;;;;12825454;22;20528;-71
2023/12/01 17:18:44;;;;;;;18.98;13.60;;;;;;;;;;12826324;22;20019;-71
2023/12/01 17:23:41;;;;;;;19.50;13.77;;;;;;;;;;12826059;22;20449;-71
2023/12/01 17:28:37;;;;;;;22.10;15.77;;;;;;;;;;12826899;22;20029;-71
2023/12/01 17:33:34;;;;;;;21.80;13.98;;;;;;;;;;12826953;22;20053;-71
2023/12/01 17:38:30;;;;;;;18.75;14.68;;;;;;;;;;12827707;22;20031;-72
2023/12/01 17:43:26;;;;;;;20.50;14.18;;;;;;;;;;12824068;22;20023;-71
2023/12/01 17:48:23;;;;;;;21.52;13.85;;;;;;;;;;12825764;22;20029;-71
2023/12/01 17:53:19;;;;;;;23.83;15.18;;;;;;;;;;12824365;22;20034;-70
2023/12/01 17:58:15;;;;;;;18.27;14.57;;;;;;;;;;12825666;22;20088;-71
2023/12/01 18:03:12;;;;;;;21.15;14.75;;;;;;;;;;12822249;22;20025;-70
2023/12/01 18:08:08;;;;;;;18.52;15.27;;;;;;;;;;12822833;22;20027;-71
2023/12/01 18:13:05;;;;;;;19.45;15.55;;;;;;;;;;12820892;22;20019;-71
2023/12/01 18:18:01;;;;;;;21.73;15.65;;;;;;;;;;12822652;22;20469;-69
2023/12/01 18:22:57;;;;;;;19.60;15.20;;;;;;;;;;12816383;22;20034;-71
2023/12/01 18:27:54;;;;;;;24.45;16.25;;;;;;;;;;12822543;22;20069;-71
2023/12/01 18:32:50;;;;;;;26.63;16.65;;;;;;;;;;12822498;22;20038;-72
2023/12/01 18:37:47;;;;;;;22.80;15.40;;;;;;;;;;12823267;22;20027;-70
2023/12/01 18:42:43;;;;;;;23.73;15.00;;;;;;;;;;12822062;22;20023;-71
2023/12/01 18:47:39;;;;;;;22.48;15.68;;;;;;;;;;12822108;22;20084;-71
2023/12/01 18:52:35;;;;;;;22.73;16.30;;;;;;;;;;12822312;22;20090;-72
2023/12/01 18:57:32;;;;;;;25.73;16.33;;;;;;;;;;12822985;22;20045;-71
2023/12/01 19:02:28;;;;;;;21.23;16.42;;;;;;;;;;12821684;22;20053;-71
2023/12/01 19:07:27;;;;;;;25.15;16.52;;;;;;;;;;12822623;22;20031;-71
2023/12/01 19:12:23;;;;;;;23.88;16.05;;;;;;;;;;12822483;22;20019;-71
2023/12/01 19:17:19;;;;;;;25.38;15.13;;;;;;;;;;12820582;22;20023;-71
2023/12/01 19:22:15;;;;;;;20.75;15.45;;;;;;;;;;12816581;22;20034;-71
2023/12/01 19:27:12;;;;;;;21.27;16.17;;;;;;;;;;12821831;22;20365;-71
2023/12/01 19:32:09;;;;;;;31.85;20.33;;;;;;;;;;12821259;22;20027;-74
2023/12/01 19:37:05;;;;;;;22.90;16.45;;;;;;;;;;12822340;22;20047;-73
2023/12/01 19:42:01;;;;;;;25.65;16.55;;;;;;;;;;12821679;22;20026;-70
2023/12/01 19:46:58;;;;;;;23.42;15.98;;;;;;;;;;12822380;22;20057;-70
2023/12/01 19:51:54;;;;;;;27.33;17.58;;;;;;;;;;12821467;22;20464;-70
2023/12/01 19:56:50;;;;;;;30.15;17.20;;;;;;;;;;12820716;22;20030;-71
2023/12/01 20:01:47;;;;;;;25.95;17.40;;;;;;;;;;12820985;22;20030;-71
2023/12/01 20:06:43;;;;;;;31.25;17.23;;;;;;;;;;12821894;22;20047;-70
2023/12/01 20:11:40;;;;;;;25.30;16.85;;;;;;;;;;12821205;22;20023;-70
2023/12/01 20:16:37;;;;;;;27.05;16.30;;;;;;;;;;12821488;22;20562;-70
2023/12/01 20:21:33;;;;;;;26.90;19.20;;;;;;;;;;12819105;22;20285;-71
2023/12/01 20:26:30;;;;;;;27.35;18.83;;;;;;;;;;12815396;22;20015;-71
2023/12/01 20:31:26;;;;;;;28.35;17.42;;;;;;;;;;12824044;22;20027;-71
2023/12/01 20:36:23;;;;;;;25.42;18.60;;;;;;;;;;12824913;22;20030;-71
2023/12/01 20:41:19;;;;;;;23.55;16.95;;;;;;;;;;12824074;22;20417;-70
2023/12/01 20:46:16;;;;;;;23.48;16.92;;;;;;;;;;12825499;22;20027;-71
2023/12/01 20:51:15;;;;;;;29.67;17.25;;;;;;;;;;12824049;22;20099;-73
2023/12/01 20:56:12;;;;;;;25.52;16.05;;;;;;;;;;12824125;22;20094;-71
2023/12/01 21:01:08;;;;;;;32.33;18.40;;;;;;;;;;12824723;22;20472;-72
2023/12/01 21:06:04;;;;;;;27.35;18.70;;;;;;;;;;12823027;22;20023;-72
2023/12/01 21:11:01;;;;;;;32.50;18.40;;;;;;;;;;12823923;22;20076;-71
2023/12/01 21:15:58;;;;;;;31.02;18.30;;;;;;;;;;12824336;22;20023;-70
2023/12/01 21:20:54;;;;;;;24.50;17.25;;;;;;;;;;12824163;22;20019;-73
2023/12/01 21:25:51;;;;;;;26.65;17.63;;;;;;;;;;12822566;22;20046;-71
2023/12/01 21:30:47;;;;;;;28.27;18.80;;;;;;;;;;12817446;22;20023;-74
2023/12/01 21:35:43;;;;;;;28.70;17.35;;;;;;;;;;12823500;22;20023;-71
2023/12/01 21:40:43;;;;;;;26.25;17.95;;;;;;;;;;12823444;22;20026;-73
2023/12/01 21:45:39;;;;;;;31.38;18.42;;;;;;;;;;12823223;22;20019;-73
2023/12/01 21:50:36;;;;;;;29.08;18.45;;;;;;;;;;12823107;22;20071;-73
2023/12/01 21:55:32;;;;;;;28.13;18.10;;;;;;;;;;12822657;22;20050;-73
2023/12/01 22:00:29;;;;;;;32.47;19.83;;;;;;;;;;12823406;22;20415;-73
2023/12/01 22:05:26;;;;;;;31.55;18.52;;;;;;;;;;12823640;22;20072;-72
2023/12/01 22:10:22;;;;;;;28.17;17.65;;;;;;;;;;12822717;22;20047;-72
2023/12/01 22:15:19;;;;;;;28.60;18.77;;;;;;;;;;12821971;22;20046;-72
2023/12/01 22:20:16;;;;;;;32.03;19.10;;;;;;;;;;12820942;22;20027;-72
2023/12/01 22:25:12;;;;;;;26.10;18.27;;;;;;;;;;12823119;22;20330;-73
2023/12/01 22:30:09;;;;;;;28.48;18.15;;;;;;;;;;12821588;22;20249;-73
2023/12/01 22:35:05;;;;;;;30.17;18.75;;;;;;;;;;12823142;22;20019;-73
2023/12/01 22:40:03;;;;;;;28.10;18.38;;;;;;;;;;12816493;22;20054;-72
2023/12/01 22:44:59;;;;;;;29.83;18.45;;;;;;;;;;12822385;22;20050;-72
2023/12/01 22:49:56;;;;;;;27.45;18.50;;;;;;;;;;12821358;22;20102;-71
2023/12/01 22:54:53;;;;;;;29.50;18.13;;;;;;;;;;12821485;22;20461;-73
2023/12/01 22:59:49;;;;;;;25.90;17.58;;;;;;;;;;12821314;22;20411;-73
2023/12/01 23:04:46;;;;;;;23.83;17.10;;;;;;;;;;12822032;22;20050;-73
2023/12/01 23:09:42;;;;;;;27.15;17.65;;;;;;;;;;12821250;22;20026;-73
2023/12/01 23:14:38;;;;;;;26.63;17.73;;;;;;;;;;12821486;22;20027;-73
2023/12/01 23:19:35;;;;;;;25.17;17.83;;;;;;;;;;12821153;22;20107;-73
2023/12/01 23:24:35;;;;;;;24.75;16.77;;;;;;;;;;12821034;22;20030;-73
2023/12/01 23:29:32;;;;;;;26.15;16.60;;;;;;;;;;12821413;22;20026;-73
2023/12/01 23:34:28;;;;;;;23.80;17.10;;;;;;;;;;12820777;22;20027;-74
2023/12/01 23:39:24;;;;;;;22.35;16.95;;;;;;;;;;12821701;22;20030;-73
2023/12/01 23:44:21;;;;;;;25.38;17.33;;;;;;;;;;12821246;22;20023;-72
2023/12/01 23:49:17;;;;;;;24.70;17.17;;;;;;;;;;12820733;22;20336;-73
2023/12/01 23:54:14;;;;;;;26.83;16.58;;;;;;;;;;12821168;22;20392;-73
2023/12/01 23:59:10;;;;;;;23.92;16.70;;;;;;;;;;12821091;22;20061;-72
